createdAt,value
2018-05-14T00:00:36.722Z,8.53
2018-05-14T00:03:04.273Z,8.80
2018-05-14T00:05:31.801Z,9.27
2018-05-14T00:07:59.318Z,8.87
2018-05-14T00:10:26.848Z,8.83
2018-05-14T00:12:54.385Z,9.47
2018-05-14T00:15:21.911Z,8.67
2018-05-14T00:17:49.451Z,9.53
2018-05-14T00:20:16.973Z,9.60
2018-05-14T00:22:44.489Z,8.93
2018-05-14T00:25:12.011Z,9.47
2018-05-14T00:27:39.536Z,9.23
2018-05-14T00:30:07.098Z,9.60
2018-05-14T00:32:34.618Z,8.97
2018-05-14T00:35:02.145Z,9.33
2018-05-14T00:37:29.662Z,9.07
2018-05-14T00:39:57.181Z,10.03
2018-05-14T00:42:24.718Z,9.60
2018-05-14T00:44:52.243Z,10.00
2018-05-14T00:47:19.768Z,9.80
2018-05-14T00:49:47.293Z,10.23
2018-05-14T00:52:14.814Z,9.90
2018-05-14T00:54:54.117Z,10.83
2018-05-14T00:57:21.650Z,11.13
2018-05-14T00:59:49.178Z,11.97
2018-05-14T01:02:16.756Z,12.53
2018-05-14T01:04:44.279Z,12.80
2018-05-14T01:07:11.814Z,13.50
2018-05-14T01:09:39.338Z,12.37
2018-05-14T01:12:06.910Z,13.07
2018-05-14T01:14:34.443Z,12.97
2018-05-14T01:17:02.034Z,12.80
2018-05-14T01:19:29.570Z,13.17
2018-05-14T01:21:57.099Z,13.90
2018-05-14T01:24:24.625Z,14.20
2018-05-14T01:26:52.159Z,14.13
2018-05-14T01:29:19.689Z,13.00
2018-05-14T01:31:47.227Z,12.90
2018-05-14T01:34:14.765Z,13.37
2018-05-14T01:36:42.295Z,14.27
2018-05-14T01:39:09.827Z,14.87
2018-05-14T01:41:37.355Z,14.93
2018-05-14T01:44:04.887Z,16.33
2018-05-14T01:46:32.415Z,15.87
2018-05-14T01:48:59.946Z,16.20
2018-05-14T01:51:27.481Z,16.70
2018-05-14T01:53:55.023Z,17.57
2018-05-14T01:56:22.581Z,17.90
2018-05-14T01:58:50.101Z,18.50
2018-05-14T02:01:17.641Z,18.70
2018-05-14T02:03:45.186Z,18.23
2018-05-14T02:06:12.714Z,18.53
2018-05-14T02:08:40.243Z,17.97
2018-05-14T02:11:07.787Z,18.20
2018-05-14T02:13:35.323Z,17.47
2018-05-14T02:16:02.890Z,17.13
2018-05-14T02:18:30.413Z,16.90
2018-05-14T02:20:58.013Z,17.37
2018-05-14T02:23:25.562Z,16.70
2018-05-14T02:25:53.088Z,17.77
2018-05-14T02:28:20.617Z,16.97
2018-05-14T02:30:48.150Z,17.40
2018-05-14T02:33:15.686Z,17.90
2018-05-14T02:35:43.215Z,16.70
2018-05-14T02:38:10.802Z,17.60
2018-05-14T02:40:38.325Z,16.47
2018-05-14T02:43:05.890Z,16.87
2018-05-14T02:45:33.436Z,17.17
2018-05-14T02:48:00.960Z,16.63
2018-05-14T02:50:28.496Z,16.03
2018-05-14T02:52:56.026Z,15.17
2018-05-14T02:55:23.563Z,15.13
2018-05-14T02:57:51.093Z,15.20
2018-05-14T03:00:18.623Z,15.00
2018-05-14T03:02:46.148Z,14.77
2018-05-14T03:05:13.674Z,13.90
2018-05-14T03:07:41.207Z,14.07
2018-05-14T03:10:08.738Z,14.13
2018-05-14T03:12:36.273Z,14.10
2018-05-14T03:15:03.809Z,15.50
2018-05-14T03:17:31.337Z,14.27
2018-05-14T03:19:58.857Z,14.50
2018-05-14T03:22:26.384Z,14.33
2018-05-14T03:24:53.917Z,14.60
2018-05-14T03:27:21.442Z,15.93
2018-05-14T03:29:48.976Z,15.13
2018-05-14T03:32:16.507Z,14.57
2018-05-14T03:34:44.036Z,14.70
2018-05-14T03:37:11.571Z,15.93
2018-05-14T03:39:39.110Z,15.17
2018-05-14T03:42:06.637Z,14.70
2018-05-14T03:44:34.170Z,14.87
2018-05-14T03:47:01.699Z,14.90
2018-05-14T03:49:29.239Z,14.33
2018-05-14T03:51:56.765Z,15.10
2018-05-14T03:54:24.310Z,14.80
2018-05-14T03:56:51.856Z,14.27
2018-05-14T03:59:31.307Z,14.07
2018-05-14T04:02:21.510Z,13.90
2018-05-14T04:05:00.639Z,13.77
2018-05-14T04:07:28.162Z,13.23
2018-05-14T04:09:55.686Z,13.63
2018-05-14T04:12:23.262Z,13.97
2018-05-14T04:14:50.789Z,18.23
2018-05-14T04:17:18.309Z,13.60
2018-05-14T04:19:45.836Z,13.47
2018-05-14T04:22:13.367Z,13.43
2018-05-14T04:24:40.932Z,14.20
2018-05-14T04:27:08.483Z,12.93
2018-05-14T04:29:36.963Z,13.00
2018-05-14T04:32:04.514Z,11.93
2018-05-14T04:34:32.046Z,13.00
2018-05-14T04:36:59.572Z,12.17
2018-05-14T04:39:27.131Z,14.40
2018-05-14T04:41:54.659Z,14.53
2018-05-14T04:44:22.195Z,15.00
2018-05-14T04:46:49.731Z,15.93
2018-05-14T04:49:17.276Z,15.50
2018-05-14T04:51:44.778Z,15.23
2018-05-14T04:54:12.299Z,13.30
2018-05-14T04:56:39.815Z,13.70
2018-05-14T04:59:07.343Z,13.97
2018-05-14T05:01:34.852Z,14.77
2018-05-14T05:04:02.374Z,16.07
2018-05-14T05:06:29.882Z,14.83
2018-05-14T05:08:57.403Z,14.87
2018-05-14T05:11:24.978Z,15.97
2018-05-14T05:13:52.437Z,16.60
2018-05-14T05:16:19.952Z,13.43
2018-05-14T05:18:47.464Z,13.67
2018-05-14T05:21:14.997Z,15.27
2018-05-14T05:23:42.557Z,14.57
2018-05-14T05:26:10.088Z,14.13
2018-05-14T05:28:37.619Z,13.90
2018-05-14T05:31:05.133Z,13.60
2018-05-14T05:33:32.651Z,14.17
2018-05-14T05:36:00.157Z,12.67
2018-05-14T05:38:27.682Z,16.13
2018-05-14T05:40:55.206Z,13.77
2018-05-14T05:43:22.727Z,15.07
2018-05-14T05:45:50.236Z,14.20
2018-05-14T05:48:17.806Z,14.63
2018-05-14T05:50:45.318Z,13.57
2018-05-14T05:53:12.868Z,14.17
2018-05-14T05:55:40.375Z,13.27
2018-05-14T05:58:07.880Z,12.07
2018-05-14T06:00:35.454Z,12.13
2018-05-14T06:03:02.971Z,11.30
2018-05-14T06:05:30.488Z,11.80
2018-05-14T06:07:57.998Z,11.80
2018-05-14T06:10:25.516Z,11.77
2018-05-14T06:12:53.040Z,10.90
2018-05-14T06:15:20.555Z,10.53
2018-05-14T06:17:48.059Z,10.80
2018-05-14T06:20:15.617Z,11.10
2018-05-14T06:22:43.137Z,9.40
2018-05-14T06:25:10.711Z,11.90
2018-05-14T06:27:38.220Z,8.73
2018-05-14T06:30:05.814Z,11.40
2018-05-14T06:32:33.341Z,9.80
2018-05-14T06:35:00.855Z,11.60
2018-05-14T06:37:28.459Z,10.00
2018-05-14T06:39:56.003Z,9.77
2018-05-14T06:42:23.514Z,9.83
2018-05-14T06:44:51.060Z,11.60
2018-05-14T06:47:18.561Z,11.87
2018-05-14T06:49:46.104Z,12.40
2018-05-14T06:52:13.624Z,13.23
2018-05-14T06:54:41.161Z,11.90
2018-05-14T06:57:08.702Z,12.27
2018-05-14T06:59:36.271Z,11.97
2018-05-14T07:02:03.801Z,13.23
2018-05-14T07:04:31.381Z,13.90
2018-05-14T07:06:58.938Z,12.20
2018-05-14T07:09:26.523Z,12.13
2018-05-14T07:11:54.004Z,13.10
2018-05-14T07:14:21.514Z,12.90
2018-05-14T07:16:49.018Z,12.47
2018-05-14T07:19:16.630Z,13.47
2018-05-14T07:21:44.096Z,12.23
2018-05-14T07:24:11.639Z,11.77
2018-05-14T07:26:39.167Z,12.05
2018-05-14T07:29:06.722Z,13.38
2018-05-14T07:31:34.233Z,14.77
2018-05-14T07:34:01.796Z,14.30
2018-05-14T07:36:29.312Z,13.60
2018-05-14T07:38:56.941Z,12.07
2018-05-14T07:41:24.452Z,13.00
2018-05-14T07:43:52.004Z,13.07
2018-05-14T07:46:19.536Z,13.02
2018-05-14T07:48:47.064Z,13.45
2018-05-14T07:51:14.637Z,14.15
2018-05-14T07:53:42.167Z,14.68
2018-05-14T07:56:09.942Z,14.82
2018-05-14T07:58:37.272Z,14.15
2018-05-14T08:01:04.786Z,14.30
2018-05-14T08:03:32.334Z,13.77
2018-05-14T08:05:59.868Z,13.10
2018-05-14T08:08:27.399Z,15.23
2018-05-14T08:10:54.910Z,15.68
2018-05-14T08:13:22.420Z,15.10
2018-05-14T08:15:49.962Z,15.10
2018-05-14T08:18:17.490Z,14.87
2018-05-14T08:20:44.995Z,16.25
2018-05-14T08:23:12.494Z,15.88
2018-05-14T08:25:40.006Z,14.60
2018-05-14T08:28:07.520Z,17.75
2018-05-14T08:30:35.074Z,15.32
2018-05-14T08:33:02.590Z,15.73
2018-05-14T08:35:30.107Z,16.00
2018-05-14T08:37:57.624Z,17.25
2018-05-14T08:40:25.131Z,16.75
2018-05-14T08:42:52.677Z,17.80
2018-05-14T08:45:20.187Z,16.85
2018-05-14T08:47:47.696Z,17.33
2018-05-14T08:50:15.219Z,17.23
2018-05-14T08:52:42.864Z,16.35
2018-05-14T08:55:10.371Z,16.52
2018-05-14T08:57:37.982Z,16.17
2018-05-14T09:00:05.653Z,17.80
2018-05-14T09:02:33.170Z,16.05
2018-05-14T09:05:00.692Z,16.27
2018-05-14T09:07:28.206Z,17.50
2018-05-14T09:09:55.729Z,15.85
2018-05-14T09:12:23.237Z,16.87
2018-05-14T09:14:50.751Z,15.07
2018-05-14T09:17:18.329Z,15.65
2018-05-14T09:19:45.824Z,17.65
2018-05-14T09:22:13.330Z,17.45
2018-05-14T09:24:40.847Z,16.95
2018-05-14T09:27:08.350Z,17.23
2018-05-14T09:29:35.884Z,17.35
2018-05-14T09:32:03.461Z,16.08
2018-05-14T09:34:30.984Z,15.38
2018-05-14T09:36:58.513Z,15.50
2018-05-14T09:39:26.029Z,16.50
2018-05-14T09:41:53.556Z,16.00
2018-05-14T09:44:21.084Z,16.83
2018-05-14T09:46:48.593Z,16.77
2018-05-14T09:49:16.099Z,15.40
2018-05-14T09:51:44.236Z,15.03
2018-05-14T09:54:11.745Z,14.63
2018-05-14T09:56:39.263Z,14.90
2018-05-14T09:59:06.768Z,14.73
2018-05-14T10:01:34.296Z,13.47
2018-05-14T10:04:01.858Z,16.03
2018-05-14T10:06:29.379Z,17.07
2018-05-14T10:08:56.896Z,16.67
2018-05-14T10:11:24.416Z,17.50
2018-05-14T10:13:51.922Z,17.80
2018-05-14T10:16:19.443Z,18.53
2018-05-14T10:18:47.019Z,19.67
2018-05-14T10:21:14.494Z,18.90
2018-05-14T10:23:41.999Z,23.70
2018-05-14T10:26:09.536Z,15.10
2018-05-14T10:28:37.063Z,11.80
2018-05-14T10:31:04.597Z,11.13
2018-05-14T10:33:32.103Z,10.63
2018-05-14T10:35:59.624Z,10.83
2018-05-14T10:38:27.122Z,9.03
2018-05-14T10:40:54.637Z,9.07
2018-05-14T10:43:22.147Z,9.07
2018-05-14T10:45:49.658Z,8.50
2018-05-14T10:48:17.178Z,11.03
2018-05-14T10:50:44.709Z,9.37
2018-05-14T10:53:12.219Z,8.70
2018-05-14T10:55:39.802Z,7.17
2018-05-14T10:58:07.309Z,7.50
2018-05-14T11:00:34.882Z,9.20
2018-05-14T11:03:02.383Z,9.70
2018-05-14T11:05:29.916Z,11.80
2018-05-14T11:07:57.473Z,13.40
2018-05-14T11:10:24.986Z,12.30
2018-05-14T11:12:52.499Z,12.17
2018-05-14T11:15:20.034Z,12.50
2018-05-14T11:17:47.571Z,13.77
2018-05-14T11:20:15.074Z,13.63
2018-05-14T11:22:42.596Z,13.67
2018-05-14T11:25:10.105Z,11.33
2018-05-14T11:27:37.703Z,12.77
2018-05-14T11:30:05.444Z,13.40
2018-05-14T11:32:33.068Z,13.63
2018-05-14T11:35:00.622Z,13.70
2018-05-14T11:37:28.194Z,15.30
2018-05-14T11:39:55.747Z,15.70
2018-05-14T11:42:23.260Z,16.47
2018-05-14T11:44:50.808Z,17.50
2018-05-14T11:47:18.843Z,16.57
2018-05-14T11:49:46.349Z,14.97
2018-05-14T11:52:13.852Z,12.10
2018-05-14T11:54:41.355Z,12.53
2018-05-14T11:57:08.911Z,11.53
2018-05-14T11:59:36.427Z,12.23
2018-05-14T12:02:03.945Z,12.30
2018-05-14T12:04:31.468Z,11.60
2018-05-14T12:06:59.045Z,10.80
2018-05-14T12:09:26.560Z,10.17
2018-05-14T12:11:55.918Z,6.03
2018-05-14T12:14:23.437Z,9.20
2018-05-14T12:16:50.976Z,9.97
2018-05-14T12:19:18.477Z,8.40
2018-05-14T12:21:45.981Z,8.77
2018-05-14T12:24:13.520Z,9.00
2018-05-14T12:26:41.034Z,8.83
2018-05-14T12:29:08.545Z,9.70
2018-05-14T12:31:36.141Z,10.07
2018-05-14T12:34:03.651Z,8.47
2018-05-14T12:36:31.164Z,8.60
2018-05-14T12:38:58.690Z,8.40
2018-05-14T12:41:26.191Z,8.90
2018-05-14T12:43:53.687Z,9.33
2018-05-14T12:46:21.203Z,10.07
2018-05-14T12:48:48.750Z,10.30
2018-05-14T12:51:16.310Z,9.13
2018-05-14T12:53:44.776Z,8.43
2018-05-14T12:56:12.309Z,9.17
2018-05-14T12:58:39.824Z,10.17
2018-05-14T13:01:07.343Z,9.93
2018-05-14T13:03:34.849Z,9.43
2018-05-14T13:06:02.519Z,10.30
2018-05-14T13:08:30.032Z,10.73
2018-05-14T13:10:57.596Z,10.60
2018-05-14T13:13:25.107Z,12.60
2018-05-14T13:15:52.635Z,13.53
2018-05-14T13:18:20.159Z,14.47
2018-05-14T13:20:47.696Z,13.00
2018-05-14T13:23:15.220Z,12.30
2018-05-14T13:25:42.762Z,12.73
2018-05-14T13:28:10.307Z,12.27
2018-05-14T13:30:37.864Z,10.63
2018-05-14T13:33:05.384Z,10.27
2018-05-14T13:35:32.887Z,9.20
2018-05-14T13:38:00.471Z,9.07
2018-05-14T13:40:27.990Z,9.13
2018-05-14T13:42:55.607Z,9.60
2018-05-14T13:45:23.101Z,8.50
2018-05-14T13:47:50.614Z,8.37
2018-05-14T13:50:18.121Z,7.47
2018-05-14T13:52:46.415Z,8.20
2018-05-14T13:55:13.915Z,8.10
2018-05-14T13:57:41.419Z,8.23
2018-05-14T14:00:08.964Z,7.37
2018-05-14T14:02:36.480Z,8.30
2018-05-14T14:05:04.074Z,8.53
2018-05-14T14:07:31.545Z,8.60
2018-05-14T14:09:59.046Z,9.03
2018-05-14T14:12:26.548Z,8.40
2018-05-14T14:14:54.093Z,7.77
2018-05-14T14:17:21.598Z,8.70
2018-05-14T14:19:49.095Z,7.83
2018-05-14T14:22:16.587Z,7.73
2018-05-14T14:24:44.106Z,8.00
2018-05-14T14:27:11.614Z,8.30
2018-05-14T14:29:40.008Z,8.53
2018-05-14T14:32:08.361Z,8.57
2018-05-14T14:34:35.887Z,9.20
2018-05-14T14:37:03.451Z,8.93
2018-05-14T14:39:30.919Z,8.77
2018-05-14T14:41:58.417Z,8.87
2018-05-14T14:44:26.008Z,8.30
2018-05-14T14:46:53.523Z,9.03
2018-05-14T14:49:21.066Z,10.30
2018-05-14T14:51:48.559Z,8.67
2018-05-14T14:54:16.313Z,8.83
2018-05-14T14:56:43.819Z,9.47
2018-05-14T14:59:11.400Z,8.83
2018-05-14T15:01:38.938Z,9.50
2018-05-14T15:04:06.447Z,8.73
2018-05-14T15:06:33.950Z,8.77
2018-05-14T15:09:01.555Z,8.53
2018-05-14T15:11:29.069Z,9.43
2018-05-14T15:13:56.654Z,8.40
2018-05-14T15:16:24.439Z,8.30
2018-05-14T15:18:51.942Z,7.03
2018-05-14T15:21:19.495Z,6.67
2018-05-14T15:23:47.006Z,6.97
2018-05-14T15:26:14.558Z,7.57
2018-05-14T15:28:42.074Z,7.13
2018-05-14T15:31:10.043Z,6.57
2018-05-14T15:33:37.917Z,6.87
2018-05-14T15:36:05.475Z,7.37
2018-05-14T15:38:32.997Z,7.03
2018-05-14T15:41:00.514Z,7.73
2018-05-14T15:43:28.064Z,7.80
2018-05-14T15:45:55.577Z,7.77
2018-05-14T15:48:23.120Z,7.50
2018-05-14T15:50:50.640Z,11.10
2018-05-14T15:53:18.156Z,8.83
2018-05-14T15:55:45.747Z,7.47
2018-05-14T15:58:13.312Z,8.83
2018-05-14T16:00:40.839Z,7.77
2018-05-14T16:03:08.351Z,7.17
2018-05-14T16:05:36.134Z,6.87
2018-05-14T16:08:03.702Z,7.30
2018-05-14T16:10:31.203Z,7.50
2018-05-14T16:12:58.722Z,7.93
2018-05-14T16:15:26.228Z,7.93
2018-05-14T16:17:53.946Z,8.87
2018-05-14T16:20:21.551Z,7.73
2018-05-14T16:22:49.065Z,8.73
2018-05-14T16:25:16.575Z,8.97
2018-05-14T16:27:44.076Z,8.23
2018-05-14T16:30:11.590Z,8.80
2018-05-14T16:32:39.125Z,8.70
2018-05-14T16:35:07.377Z,8.60
2018-05-14T16:37:34.890Z,8.23
2018-05-14T16:40:02.451Z,9.10
2018-05-14T16:42:29.947Z,8.90
2018-05-14T16:44:57.453Z,8.90
2018-05-14T16:47:25.002Z,9.63
2018-05-14T16:49:53.269Z,8.17
2018-05-14T16:52:20.779Z,11.33
2018-05-14T16:54:48.330Z,9.50
2018-05-14T16:57:15.839Z,8.87
2018-05-14T16:59:43.396Z,8.40
2018-05-14T17:02:10.951Z,7.57
2018-05-14T17:04:38.467Z,7.73
2018-05-14T17:07:05.971Z,7.13
2018-05-14T17:09:33.507Z,7.30
2018-05-14T17:12:01.023Z,7.63
2018-05-14T17:14:28.530Z,7.33
2018-05-14T17:16:56.100Z,7.63
2018-05-14T17:19:23.613Z,7.47
2018-05-14T17:21:51.182Z,7.70
2018-05-14T17:24:18.686Z,8.53
2018-05-14T17:26:46.227Z,9.20
2018-05-14T17:29:13.780Z,8.20
2018-05-14T17:31:41.317Z,8.80
2018-05-14T17:34:08.871Z,9.20
2018-05-14T17:36:36.419Z,8.37
2018-05-14T17:39:03.999Z,8.80
2018-05-14T17:41:31.516Z,9.70
2018-05-14T17:43:59.048Z,9.00
2018-05-14T17:46:26.569Z,10.30
2018-05-14T17:48:54.071Z,9.63
2018-05-14T17:51:21.603Z,9.73
2018-05-14T17:53:49.176Z,10.90
2018-05-14T17:56:16.737Z,10.10
2018-05-14T17:58:44.254Z,11.53
2018-05-14T18:01:11.755Z,11.63
2018-05-14T18:03:39.270Z,12.93
2018-05-14T18:06:06.828Z,10.57
2018-05-14T18:08:34.442Z,11.23
2018-05-14T18:11:02.041Z,15.27
2018-05-14T18:13:29.492Z,11.93
2018-05-14T18:15:57.008Z,10.90
2018-05-14T18:18:24.537Z,10.10
2018-05-14T18:20:52.128Z,10.90
2018-05-14T18:23:23.524Z,14.50
2018-05-14T18:29:05.880Z,11.40
2018-05-14T18:31:33.422Z,11.13
2018-05-14T18:34:06.565Z,12.17
2018-05-14T18:36:34.100Z,11.00
2018-05-14T18:39:01.629Z,11.97
2018-05-14T18:41:29.208Z,11.00
2018-05-14T18:43:56.740Z,11.30
2018-05-14T18:46:24.358Z,11.50
2018-05-14T18:48:51.803Z,11.63
2018-05-14T18:51:19.404Z,13.10
2018-05-14T18:53:46.917Z,12.60
2018-05-14T18:56:14.450Z,12.77
2018-05-14T18:58:42.197Z,13.23
2018-05-14T19:01:09.722Z,14.50
2018-05-14T19:03:37.247Z,12.03
2018-05-14T19:06:04.783Z,13.40
2018-05-14T19:08:32.571Z,12.90
2018-05-14T19:11:05.718Z,14.73
2018-05-14T19:13:33.241Z,15.03
2018-05-14T19:16:06.331Z,12.73
2018-05-14T19:18:33.884Z,13.33
2018-05-14T19:21:01.402Z,13.50
2018-05-14T19:23:34.575Z,13.37
2018-05-14T19:26:02.095Z,13.03
2018-05-14T19:28:35.144Z,14.27
2018-05-14T19:31:02.663Z,13.27
2018-05-14T19:33:35.715Z,13.27
2018-05-14T19:36:03.285Z,13.07
2018-05-14T19:38:30.773Z,12.90
2018-05-14T19:40:58.282Z,11.47
2018-05-14T19:43:25.804Z,12.37
2018-05-14T19:45:53.322Z,12.10
2018-05-14T19:48:20.863Z,11.67
2018-05-14T19:50:48.372Z,11.97
2018-05-14T19:53:15.907Z,12.90
2018-05-14T19:55:43.423Z,12.63
2018-05-14T19:58:10.939Z,12.20
2018-05-14T20:00:38.472Z,11.20
2018-05-14T20:03:05.995Z,11.67
2018-05-14T20:05:33.602Z,12.17
2018-05-14T20:08:01.117Z,12.10
2018-05-14T20:10:30.750Z,12.30
2018-05-14T20:12:58.301Z,12.77
2018-05-14T20:15:25.919Z,15.73
2018-05-14T20:17:53.459Z,15.37
2018-05-14T20:20:21.289Z,16.27
2018-05-14T20:22:48.854Z,15.33
2018-05-14T20:25:16.419Z,15.33
2018-05-14T20:27:43.996Z,14.30
2018-05-14T20:30:11.560Z,13.63
2018-05-14T20:32:39.071Z,16.77
2018-05-14T20:35:06.579Z,16.37
2018-05-14T20:37:34.119Z,16.13
2018-05-14T20:40:01.632Z,13.53
2018-05-14T20:42:29.208Z,14.07
2018-05-14T20:44:56.740Z,15.77
2018-05-14T20:47:24.346Z,14.87
2018-05-14T20:49:51.851Z,13.30
2018-05-14T20:52:19.363Z,16.53
2018-05-14T20:54:46.887Z,14.77
2018-05-14T20:57:14.440Z,13.13
2018-05-14T20:59:41.963Z,13.07
2018-05-14T21:02:09.486Z,14.17
2018-05-14T21:04:37.037Z,15.50
2018-05-14T21:07:04.592Z,14.30
2018-05-14T21:09:32.103Z,15.50
2018-05-14T21:11:59.635Z,18.00
2018-05-14T21:14:27.205Z,21.17
2018-05-14T21:16:54.711Z,23.80
2018-05-14T21:19:22.236Z,23.23
2018-05-14T21:21:49.743Z,17.60
2018-05-14T21:24:17.261Z,17.23
2018-05-14T21:26:44.882Z,26.43
2018-05-14T21:29:12.398Z,17.40
2018-05-14T21:31:39.951Z,17.23
2018-05-14T21:34:07.780Z,20.03
2018-05-14T21:36:35.296Z,18.23
2018-05-14T21:39:02.879Z,17.83
2018-05-14T21:41:30.365Z,20.57
2018-05-14T21:43:57.879Z,19.20
2018-05-14T21:46:25.442Z,16.90
2018-05-14T21:48:52.989Z,17.13
2018-05-14T21:51:20.575Z,16.23
2018-05-14T21:53:48.104Z,16.87
2018-05-14T21:56:15.623Z,18.33
2018-05-14T21:58:43.137Z,17.57
2018-05-14T22:01:10.686Z,20.67
2018-05-14T22:03:38.200Z,20.67
2018-05-14T22:06:05.745Z,17.47
2018-05-14T22:08:33.304Z,17.83
2018-05-14T22:11:00.851Z,18.00
2018-05-14T22:13:28.363Z,18.27
2018-05-14T22:15:55.943Z,19.13
2018-05-14T22:18:23.575Z,18.33
2018-05-14T22:20:51.031Z,16.83
2018-05-14T22:23:18.602Z,14.03
2018-05-14T22:25:46.151Z,14.30
2018-05-14T22:28:13.708Z,12.77
2018-05-14T22:30:41.269Z,13.03
2018-05-14T22:33:08.777Z,13.20
2018-05-14T22:35:36.288Z,13.90
2018-05-14T22:38:03.830Z,13.27
2018-05-14T22:40:31.373Z,12.90
2018-05-14T22:42:58.932Z,13.50
2018-05-14T22:45:26.531Z,13.33
2018-05-14T22:47:54.055Z,13.20
2018-05-14T22:50:21.575Z,13.37
2018-05-14T22:52:49.090Z,12.97
2018-05-14T22:55:16.615Z,12.73
2018-05-14T22:57:44.172Z,12.47
2018-05-14T23:00:11.739Z,12.70
2018-05-14T23:02:39.289Z,13.00
2018-05-14T23:05:06.793Z,12.43
2018-05-14T23:07:34.319Z,12.77
2018-05-14T23:10:01.847Z,12.10
2018-05-14T23:12:29.393Z,12.37
2018-05-14T23:14:56.916Z,12.53
2018-05-14T23:17:24.437Z,12.40
2018-05-14T23:19:51.986Z,13.10
2018-05-14T23:22:19.564Z,12.37
2018-05-14T23:24:47.096Z,11.27
2018-05-14T23:27:14.609Z,11.67
2018-05-14T23:29:42.133Z,11.77
2018-05-14T23:32:09.677Z,11.77
2018-05-14T23:34:37.244Z,11.87
2018-05-14T23:37:04.761Z,12.57
2018-05-14T23:39:32.317Z,12.83
2018-05-14T23:41:59.840Z,12.13
2018-05-14T23:44:27.400Z,11.97
2018-05-14T23:46:54.916Z,12.03
2018-05-14T23:49:22.512Z,11.80
2018-05-14T23:51:50.049Z,11.60
2018-05-14T23:54:17.577Z,12.43
2018-05-14T23:56:45.136Z,12.37
2018-05-14T23:59:12.697Z,12.83
